Terminal Aerodrome Forecast
Issued by NWS Upton, NY

Home | Current Version | Previous Version | Text Only | Print | Product List | Glossary On
Versions: 1 2 3 4 5 6 7 8 9 10 11 12 13 14 15 16 17 18 19 20 21 22 23 24 25 26 27 28 29 30 31 32
000
FTUS41 KOKX 160836 AAB
TAFISP
TAF AMD
KISP 160836Z 1609/1706 VRB02KT P6SM BKN015
     FM161400 VRB05KT P6SM BKN020
     FM161800 14006KT P6SM BKN020
     FM170000 13006KT 6SM -SN BKN020
     FM170300 VRB04KT 2SM -RASN BKN015=

USA.gov is the U.S. government's official web portal to all federal, state and local government web resources and services.